createdAt,value
2023-05-14T00:02:04.951Z,10.32
2023-05-14T00:04:32.522Z,10.10
2023-05-14T00:07:00.043Z,9.73
2023-05-14T00:09:27.526Z,10.23
2023-05-14T00:11:56.306Z,10.43
2023-05-14T00:14:23.752Z,10.98
2023-05-14T00:16:51.191Z,10.20
2023-05-14T00:19:18.981Z,10.07
2023-05-14T00:21:46.519Z,10.13
2023-05-14T00:24:14.000Z,10.90
2023-05-14T00:26:41.443Z,10.23
2023-05-14T00:29:10.676Z,10.73
2023-05-14T00:31:38.249Z,9.52
2023-05-14T00:34:05.937Z,9.27
2023-05-14T00:36:33.364Z,9.10
2023-05-14T00:39:00.899Z,10.27
2023-05-14T00:41:28.339Z,10.73
2023-05-14T00:43:55.759Z,9.43
2023-05-14T00:46:24.569Z,9.90
2023-05-14T00:48:52.073Z,10.60
2023-05-14T00:51:19.620Z,10.88
2023-05-14T00:53:47.229Z,10.10
2023-05-14T00:56:15.110Z,9.65
2023-05-14T00:58:42.538Z,9.18
2023-05-14T01:01:10.279Z,9.38
2023-05-14T01:03:39.447Z,8.95
2023-05-14T01:06:12.582Z,9.30
2023-05-14T01:08:46.331Z,9.05
2023-05-14T01:11:18.943Z,9.55
2023-05-14T01:13:55.102Z,9.65
2023-05-14T01:16:23.354Z,10.82
2023-05-14T01:18:52.791Z,11.05
2023-05-14T01:21:40.433Z,11.15
2023-05-14T01:24:08.515Z,11.50
2023-05-14T01:26:36.419Z,11.13
2023-05-14T01:29:09.215Z,11.70
2023-05-14T01:31:39.773Z,10.35
2023-05-14T01:34:07.902Z,10.70
2023-05-14T01:36:36.242Z,10.65
2023-05-14T01:39:05.280Z,10.90
2023-05-14T01:41:33.148Z,11.68
2023-05-14T01:44:00.607Z,11.60
2023-05-14T01:46:32.264Z,13.45
2023-05-14T01:48:59.971Z,12.93
2023-05-14T01:51:27.502Z,12.85
2023-05-14T01:53:55.001Z,13.02
2023-05-14T01:56:25.893Z,12.63
2023-05-14T01:58:53.484Z,11.80
2023-05-14T02:01:21.105Z,12.27
2023-05-14T02:03:48.660Z,13.93
2023-05-14T02:06:16.163Z,14.18
2023-05-14T02:08:43.584Z,13.23
2023-05-14T02:11:11.080Z,12.38
2023-05-14T02:13:39.889Z,12.30
2023-05-14T02:16:07.928Z,11.75
2023-05-14T02:18:35.544Z,12.13
2023-05-14T02:21:28.255Z,12.52
2023-05-14T02:23:56.143Z,11.20
2023-05-14T02:26:23.590Z,11.70
2023-05-14T02:28:52.445Z,11.88
2023-05-14T02:31:19.957Z,12.23
2023-05-14T02:33:47.443Z,10.32
2023-05-14T02:36:14.882Z,10.07
2023-05-14T02:38:42.422Z,10.65
2023-05-14T02:41:09.935Z,10.57
2023-05-14T02:43:37.436Z,10.88
2023-05-14T02:46:06.315Z,10.93
2023-05-14T02:48:33.762Z,11.43
2023-05-14T02:51:01.244Z,11.43
2023-05-14T02:53:28.683Z,11.82
2023-05-14T02:55:56.247Z,11.10
2023-05-14T02:58:27.140Z,11.38
2023-05-14T03:00:56.118Z,11.05
2023-05-14T03:03:25.438Z,11.02
2023-05-14T03:05:53.269Z,9.70
2023-05-14T03:08:20.788Z,11.30
2023-05-14T03:10:48.307Z,10.68
2023-05-14T03:13:17.879Z,11.98
2023-05-14T03:15:45.353Z,12.18
2023-05-14T03:18:13.097Z,11.52
2023-05-14T03:20:42.013Z,11.52
2023-05-14T03:23:09.502Z,11.45
2023-05-14T03:25:37.043Z,11.00
2023-05-14T03:28:04.637Z,11.68
2023-05-14T03:30:32.196Z,11.98
2023-05-14T03:33:00.084Z,13.50
2023-05-14T03:35:27.602Z,13.55
2023-05-14T03:37:59.214Z,12.77
2023-05-14T03:40:26.854Z,12.75
2023-05-14T03:42:54.308Z,12.15
2023-05-14T03:45:22.004Z,12.30
2023-05-14T03:47:49.539Z,12.30
2023-05-14T03:50:17.212Z,12.45
2023-05-14T03:52:45.889Z,11.82
2023-05-14T03:55:14.690Z,11.63
2023-05-14T03:57:42.140Z,12.38
2023-05-14T04:00:11.034Z,12.07
2023-05-14T04:02:38.596Z,11.10
2023-05-14T04:05:06.438Z,11.63
2023-05-14T04:07:33.899Z,12.00
2023-05-14T04:10:04.203Z,13.18
2023-05-14T04:12:33.401Z,11.88
2023-05-14T04:15:00.916Z,11.98
2023-05-14T04:17:28.451Z,11.73
2023-05-14T04:19:55.920Z,11.50
2023-05-14T04:22:23.398Z,11.25
2023-05-14T04:24:51.752Z,10.20
2023-05-14T04:27:21.151Z,9.90
2023-05-14T04:29:50.635Z,8.75
2023-05-14T04:32:18.742Z,8.88
2023-05-14T04:34:47.018Z,8.95
2023-05-14T04:37:14.636Z,9.13
2023-05-14T04:39:42.569Z,8.35
2023-05-14T04:42:10.058Z,8.50
2023-05-14T04:44:37.706Z,8.10
2023-05-14T04:47:07.570Z,8.48
2023-05-14T04:49:35.075Z,8.70
2023-05-14T04:52:02.630Z,7.65
2023-05-14T04:54:30.177Z,8.88
2023-05-14T04:56:57.689Z,8.73
2023-05-14T04:59:25.152Z,7.72
2023-05-14T05:01:52.699Z,7.93
2023-05-14T05:04:23.658Z,8.25
2023-05-14T05:06:51.303Z,7.88
2023-05-14T05:09:18.885Z,7.88
2023-05-14T05:11:46.541Z,8.07
2023-05-14T05:14:14.110Z,7.70
2023-05-14T05:16:41.625Z,8.63
2023-05-14T05:19:09.203Z,7.53
2023-05-14T05:21:39.285Z,7.35
2023-05-14T05:24:07.497Z,7.80
2023-05-14T05:26:36.740Z,8.55
2023-05-14T05:29:04.727Z,8.25
2023-05-14T05:31:32.663Z,7.38
2023-05-14T05:34:00.761Z,7.75
2023-05-14T05:36:28.730Z,8.95
2023-05-14T05:38:57.563Z,7.85
2023-05-14T05:41:25.062Z,8.25
2023-05-14T05:43:52.518Z,8.05
2023-05-14T05:46:20.212Z,7.25
2023-05-14T05:48:47.690Z,7.30
2023-05-14T05:51:15.310Z,7.65
2023-05-14T05:53:42.776Z,8.20
2023-05-14T05:56:11.574Z,7.32
2023-05-14T05:58:39.544Z,7.85
2023-05-14T06:01:07.054Z,7.57
2023-05-14T06:03:34.627Z,7.85
2023-05-14T06:06:02.223Z,7.57
2023-05-14T06:08:29.708Z,7.35
2023-05-14T06:10:57.196Z,8.20
2023-05-14T06:13:25.941Z,7.68
2023-05-14T06:15:53.448Z,8.30
2023-05-14T06:18:20.964Z,6.75
2023-05-14T06:20:48.386Z,6.65
2023-05-14T06:23:15.852Z,7.95
2023-05-14T06:25:43.339Z,7.28
2023-05-14T06:28:10.781Z,8.02
2023-05-14T06:30:39.866Z,7.15
2023-05-14T06:33:07.437Z,6.90
2023-05-14T06:35:35.600Z,7.40
2023-05-14T06:38:03.615Z,6.78
2023-05-14T06:40:31.116Z,7.55
2023-05-14T06:42:58.651Z,7.00
2023-05-14T06:45:26.148Z,6.63
2023-05-14T06:47:56.092Z,6.75
2023-05-14T06:50:24.006Z,6.63
2023-05-14T06:52:51.577Z,6.50
2023-05-14T06:55:19.113Z,6.22
2023-05-14T06:57:46.530Z,6.30
2023-05-14T07:00:15.706Z,6.63
2023-05-14T07:02:43.233Z,6.43
2023-05-14T07:05:12.401Z,6.38
2023-05-14T07:07:39.978Z,5.93
2023-05-14T07:10:08.813Z,7.10
2023-05-14T07:12:36.278Z,6.30
2023-05-14T07:15:03.846Z,6.50
2023-05-14T07:17:31.370Z,6.22
2023-05-14T07:19:58.865Z,6.35
2023-05-14T07:22:27.696Z,5.93
2023-05-14T07:24:55.167Z,7.00
2023-05-14T07:27:22.632Z,6.43
2023-05-14T07:29:50.593Z,6.28
2023-05-14T07:32:18.119Z,7.05
2023-05-14T07:34:46.333Z,6.80
2023-05-14T07:37:13.782Z,6.35
2023-05-14T07:39:42.547Z,7.00
2023-05-14T07:42:10.018Z,5.63
2023-05-14T07:44:37.537Z,6.30
2023-05-14T07:47:07.471Z,5.70
2023-05-14T07:49:34.923Z,5.70
2023-05-14T07:52:02.424Z,5.35
2023-05-14T07:54:29.823Z,5.30
2023-05-14T07:56:58.732Z,5.88
2023-05-14T07:59:26.351Z,5.80
2023-05-14T08:01:53.836Z,5.55
2023-05-14T08:04:23.336Z,5.40
2023-05-14T08:06:51.350Z,5.43
2023-05-14T08:09:18.899Z,5.32
2023-05-14T08:11:46.356Z,5.10
2023-05-14T08:14:15.144Z,5.30
2023-05-14T08:16:42.638Z,5.20
2023-05-14T08:19:10.155Z,5.35
2023-05-14T08:21:37.679Z,5.28
2023-05-14T08:24:05.691Z,5.43
2023-05-14T08:26:33.192Z,4.80
2023-05-14T08:29:00.670Z,4.82
2023-05-14T08:31:29.558Z,4.60
2023-05-14T08:33:57.108Z,4.50
2023-05-14T08:36:24.822Z,3.85
2023-05-14T08:38:52.632Z,3.90
2023-05-14T08:41:21.297Z,3.85
2023-05-14T08:43:56.617Z,3.60
2023-05-14T08:46:25.157Z,4.32
2023-05-14T08:48:58.715Z,3.75
2023-05-14T08:51:27.653Z,3.83
2023-05-14T08:53:55.251Z,3.72
2023-05-14T08:56:23.535Z,3.80
2023-05-14T08:58:51.088Z,4.30
2023-05-14T09:01:19.896Z,4.68
2023-05-14T09:03:47.974Z,3.40
2023-05-14T09:06:17.294Z,3.95
2023-05-14T09:08:44.742Z,4.10
2023-05-14T09:11:12.499Z,4.45
2023-05-14T09:13:40.364Z,3.67
2023-05-14T09:16:08.449Z,4.18
2023-05-14T09:18:37.165Z,4.07
2023-05-14T09:21:05.549Z,4.07
2023-05-14T09:23:34.726Z,3.78
2023-05-14T09:26:05.545Z,4.35
2023-05-14T09:28:33.089Z,3.83
2023-05-14T09:31:00.550Z,3.70
2023-05-14T09:33:28.521Z,4.18
2023-05-14T09:36:00.405Z,3.50
2023-05-14T09:38:31.043Z,3.92
2023-05-14T09:41:00.733Z,4.15
2023-05-14T09:43:28.428Z,3.55
2023-05-14T09:45:56.018Z,3.38
2023-05-14T09:48:24.381Z,3.67
2023-05-14T09:50:52.544Z,3.08
2023-05-14T09:53:20.081Z,3.60
2023-05-14T09:55:47.804Z,3.40
2023-05-14T09:58:16.613Z,3.90
2023-05-14T10:00:46.523Z,3.42
2023-05-14T10:03:18.848Z,3.60
2023-05-14T10:05:47.984Z,3.63
2023-05-14T10:08:20.174Z,3.70
2023-05-14T10:10:47.733Z,3.58
2023-05-14T10:13:20.427Z,3.33
2023-05-14T10:15:49.834Z,3.25
2023-05-14T10:18:19.295Z,3.35
2023-05-14T10:20:49.461Z,3.15
2023-05-14T10:23:17.174Z,3.38
2023-05-14T10:25:44.976Z,3.03
2023-05-14T10:28:12.702Z,2.80
2023-05-14T10:30:45.302Z,3.67
2023-05-14T10:33:15.514Z,2.95
2023-05-14T10:35:57.186Z,3.33
2023-05-14T10:38:27.843Z,3.50
2023-05-14T10:40:57.764Z,3.60
2023-05-14T10:43:26.477Z,3.65
2023-05-14T10:45:55.735Z,3.40
2023-05-14T10:48:23.269Z,3.00
2023-05-14T10:50:51.588Z,3.38
2023-05-14T10:53:19.560Z,4.10
2023-05-14T10:55:47.239Z,3.72
2023-05-14T10:58:16.077Z,3.50
2023-05-14T11:00:43.569Z,3.53
2023-05-14T11:03:13.486Z,3.88
2023-05-14T11:05:41.991Z,3.45
2023-05-14T11:08:09.809Z,3.60
2023-05-14T11:10:38.899Z,3.75
2023-05-14T11:13:07.042Z,3.45
2023-05-14T11:15:34.543Z,3.88
2023-05-14T11:18:02.043Z,3.80
2023-05-14T11:20:32.728Z,3.45
2023-05-14T11:23:00.411Z,3.70
2023-05-14T11:25:27.960Z,3.70
2023-05-14T11:27:58.693Z,3.17
2023-05-14T11:30:26.235Z,3.58
2023-05-14T11:32:54.298Z,3.42
2023-05-14T11:35:21.884Z,3.75
2023-05-14T11:37:53.524Z,3.63
2023-05-14T11:42:52.073Z,3.72
2023-05-14T11:45:26.222Z,4.10
2023-05-14T11:47:54.086Z,3.88
2023-05-14T11:50:22.500Z,4.55
2023-05-14T11:52:50.993Z,3.47
2023-05-14T11:55:20.881Z,3.20
2023-05-14T11:57:48.930Z,3.47
2023-05-14T12:00:26.336Z,3.75
2023-05-14T12:02:54.135Z,3.13
2023-05-14T12:05:21.884Z,3.45
2023-05-14T12:07:49.348Z,3.30
2023-05-14T12:10:16.864Z,3.17
2023-05-14T12:12:48.433Z,3.33
2023-05-14T12:17:44.361Z,3.42
2023-05-14T12:20:12.906Z,3.30
2023-05-14T12:22:42.581Z,3.75
2023-05-14T12:25:13.324Z,3.83
2023-05-14T12:27:41.182Z,4.03
2023-05-14T12:30:21.181Z,3.40
2023-05-14T12:33:00.862Z,3.75
2023-05-14T12:35:28.479Z,3.70
2023-05-14T12:37:55.960Z,3.25
2023-05-14T12:40:23.662Z,3.50
2023-05-14T12:42:51.274Z,3.83
2023-05-14T12:45:20.111Z,3.20
2023-05-14T12:47:47.626Z,3.47
2023-05-14T12:50:15.125Z,3.28
2023-05-14T12:52:42.585Z,3.50
2023-05-14T12:55:10.993Z,3.17
2023-05-14T12:57:38.915Z,3.35
2023-05-14T13:00:08.606Z,3.50
2023-05-14T13:02:42.923Z,3.40
2023-05-14T13:05:11.156Z,3.28
2023-05-14T13:07:38.808Z,3.08
2023-05-14T13:10:07.380Z,3.15
2023-05-14T13:12:34.922Z,3.03
2023-05-14T13:15:02.471Z,3.05
2023-05-14T13:17:30.165Z,3.88
2023-05-14T13:19:59.037Z,3.10
2023-05-14T13:22:26.550Z,2.85
2023-05-14T13:24:54.231Z,2.80
2023-05-14T13:27:21.706Z,2.55
2023-05-14T13:29:49.193Z,2.90
2023-05-14T13:32:16.663Z,3.20
2023-05-14T13:34:44.409Z,3.00
2023-05-14T13:37:13.227Z,2.67
2023-05-14T13:39:41.215Z,3.08
2023-05-14T13:42:09.004Z,3.10
2023-05-14T13:44:36.888Z,2.80
2023-05-14T13:47:04.628Z,3.00
2023-05-14T13:49:32.091Z,2.85
2023-05-14T13:51:59.652Z,2.65
2023-05-14T13:54:28.439Z,2.80
2023-05-14T13:56:56.101Z,2.80
2023-05-14T13:59:23.963Z,2.88
2023-05-14T14:01:51.726Z,3.45
2023-05-14T14:04:19.933Z,3.13
2023-05-14T14:06:47.378Z,2.95
2023-05-14T14:09:14.886Z,2.85
2023-05-14T14:11:43.773Z,3.20
2023-05-14T14:14:11.272Z,3.25
2023-05-14T14:16:38.826Z,4.00
2023-05-14T14:19:06.502Z,3.30
2023-05-14T14:21:34.222Z,3.15
2023-05-14T14:24:01.692Z,3.10
2023-05-14T14:26:29.318Z,3.10
2023-05-14T14:28:58.507Z,3.50
2023-05-14T14:31:26.037Z,3.38
2023-05-14T14:33:53.565Z,2.90
2023-05-14T14:36:21.066Z,3.47
2023-05-14T14:38:48.503Z,3.10
2023-05-14T14:41:16.493Z,3.28
2023-05-14T14:43:44.033Z,3.20
2023-05-14T14:46:13.865Z,3.38
2023-05-14T14:48:41.882Z,3.55
2023-05-14T14:51:09.806Z,3.10
2023-05-14T14:53:37.514Z,3.42
2023-05-14T14:56:05.878Z,3.25
2023-05-14T14:58:33.747Z,3.33
2023-05-14T15:01:01.773Z,3.60
2023-05-14T15:03:31.512Z,2.97
2023-05-14T15:05:59.246Z,3.17
2023-05-14T15:08:28.085Z,3.20
2023-05-14T15:10:55.877Z,3.40
2023-05-14T15:13:24.162Z,3.60
2023-05-14T15:15:52.073Z,3.40
2023-05-14T15:18:19.708Z,2.80
2023-05-14T15:20:48.879Z,2.80
2023-05-14T15:23:25.467Z,3.50
2023-05-14T15:25:53.062Z,2.83
2023-05-14T15:28:20.495Z,2.67
2023-05-14T15:30:48.975Z,2.97
2023-05-14T15:33:19.102Z,3.28
2023-05-14T15:35:46.587Z,2.63
2023-05-14T15:38:15.573Z,2.80
2023-05-14T15:40:43.219Z,2.97
2023-05-14T15:43:10.676Z,2.83
2023-05-14T15:45:38.314Z,2.95
2023-05-14T15:48:06.218Z,2.50
2023-05-14T15:50:33.760Z,3.10
2023-05-14T15:53:01.555Z,2.95
2023-05-14T15:55:30.607Z,3.15
2023-05-14T15:57:58.386Z,2.60
2023-05-14T16:00:26.337Z,3.38
2023-05-14T16:02:54.075Z,3.35
2023-05-14T16:05:21.647Z,3.92
2023-05-14T16:07:49.500Z,2.83
2023-05-14T16:10:17.058Z,2.72
2023-05-14T16:12:46.356Z,3.72
2023-05-14T16:15:13.876Z,3.03
2023-05-14T16:17:41.924Z,2.97
2023-05-14T16:20:10.305Z,3.13
2023-05-14T16:22:37.912Z,2.95
2023-05-14T16:25:06.386Z,2.92
2023-05-14T16:27:33.924Z,2.97
2023-05-14T16:30:02.977Z,3.10
2023-05-14T16:32:30.718Z,3.13
2023-05-14T16:34:58.210Z,3.30
2023-05-14T16:37:25.937Z,2.97
2023-05-14T16:39:53.511Z,2.42
2023-05-14T16:42:21.284Z,2.80
2023-05-14T16:44:48.939Z,2.80
2023-05-14T16:47:17.881Z,2.83
2023-05-14T16:49:45.358Z,2.95
2023-05-14T16:52:12.929Z,3.28
2023-05-14T16:54:40.516Z,2.80
2023-05-14T16:57:08.381Z,2.83
2023-05-14T16:59:36.113Z,3.00
2023-05-14T17:02:04.078Z,3.15
2023-05-14T17:07:06.232Z,3.28
2023-05-14T17:09:34.169Z,2.90
2023-05-14T17:12:01.752Z,3.05
2023-05-14T17:14:29.421Z,2.70
2023-05-14T17:16:57.722Z,2.90
2023-05-14T17:19:25.146Z,3.00
2023-05-14T17:21:54.179Z,2.97
2023-05-14T17:24:21.594Z,3.08
2023-05-14T17:26:49.079Z,2.92
2023-05-14T17:29:16.659Z,2.80
2023-05-14T17:31:44.129Z,3.38
2023-05-14T17:34:11.705Z,2.88
2023-05-14T17:36:39.524Z,2.50
2023-05-14T17:39:08.453Z,2.97
2023-05-14T17:41:35.899Z,2.65
2023-05-14T17:44:03.467Z,3.30
2023-05-14T17:46:31.193Z,2.63
2023-05-14T17:48:59.112Z,3.00
2023-05-14T17:51:26.580Z,2.72
2023-05-14T17:53:54.182Z,3.22
2023-05-14T17:56:23.180Z,3.10
2023-05-14T17:58:50.742Z,3.40
2023-05-14T18:01:18.397Z,3.70
2023-05-14T18:03:46.076Z,3.05
2023-05-14T18:06:13.718Z,3.20
2023-05-14T18:08:41.880Z,3.38
2023-05-14T18:11:09.621Z,2.92
2023-05-14T18:13:38.597Z,3.17
2023-05-14T18:16:06.621Z,3.13
2023-05-14T18:18:34.189Z,2.88
2023-05-14T18:21:01.695Z,2.80
2023-05-14T18:23:29.280Z,3.13
2023-05-14T18:25:56.736Z,3.00
2023-05-14T18:28:24.379Z,3.13
2023-05-14T18:30:53.310Z,2.95
2023-05-14T18:33:21.029Z,2.78
2023-05-14T18:35:48.706Z,2.88
2023-05-14T18:38:17.842Z,3.00
2023-05-14T18:40:45.546Z,2.92
2023-05-14T18:43:13.464Z,3.15
2023-05-14T18:45:41.280Z,3.20
2023-05-14T18:48:10.572Z,3.58
2023-05-14T18:50:39.373Z,3.08
2023-05-14T18:53:07.290Z,3.30
2023-05-14T18:55:35.993Z,3.67
2023-05-14T18:58:03.667Z,3.10
2023-05-14T19:00:31.303Z,3.22
2023-05-14T19:02:59.141Z,3.03
2023-05-14T19:05:28.054Z,3.33
2023-05-14T19:07:55.563Z,3.47
2023-05-14T19:10:23.203Z,3.78
2023-05-14T19:12:50.653Z,3.40
2023-05-14T19:15:18.267Z,3.38
2023-05-14T19:17:46.020Z,3.58
2023-05-14T19:20:13.724Z,3.65
2023-05-14T19:22:42.709Z,4.28
2023-05-14T19:25:11.381Z,4.47
2023-05-14T19:27:39.235Z,3.90
2023-05-14T19:30:08.047Z,3.63
2023-05-14T19:32:37.557Z,3.58
2023-05-14T19:35:05.909Z,3.75
2023-05-14T19:37:33.448Z,3.60
2023-05-14T19:40:02.349Z,3.50
2023-05-14T19:42:30.790Z,3.30
2023-05-14T19:44:58.268Z,2.88
2023-05-14T19:47:26.091Z,3.50
2023-05-14T19:49:53.566Z,3.25
2023-05-14T19:52:21.407Z,2.72
2023-05-14T19:54:48.833Z,3.47
2023-05-14T19:57:17.918Z,3.28
2023-05-14T19:59:45.456Z,3.65
2023-05-14T20:02:18.454Z,3.63
2023-05-14T20:04:47.699Z,3.20
2023-05-14T20:07:15.785Z,3.45
2023-05-14T20:09:43.503Z,3.63
2023-05-14T20:12:13.015Z,3.40
2023-05-14T20:14:41.785Z,4.25
2023-05-14T20:17:10.345Z,3.58
2023-05-14T20:19:38.347Z,3.60
2023-05-14T20:22:06.275Z,3.38
2023-05-14T20:24:33.885Z,4.38
2023-05-14T20:27:01.579Z,3.63
2023-05-14T20:29:29.301Z,3.85
2023-05-14T20:31:58.230Z,3.88
2023-05-14T20:34:25.882Z,3.83
2023-05-14T20:36:53.523Z,4.05
2023-05-14T20:39:21.179Z,4.40
2023-05-14T20:41:48.629Z,4.43
2023-05-14T20:44:17.281Z,4.38
2023-05-14T20:46:46.055Z,4.28
2023-05-14T20:49:14.957Z,3.97
2023-05-14T20:51:42.562Z,4.50
2023-05-14T20:54:10.148Z,4.13
2023-05-14T20:56:37.667Z,4.15
2023-05-14T20:59:05.099Z,4.55
2023-05-14T21:01:32.632Z,4.30
2023-05-14T21:04:00.359Z,4.45
2023-05-14T21:06:29.364Z,4.28
2023-05-14T21:08:56.871Z,4.47
2023-05-14T21:11:24.456Z,4.78
2023-05-14T21:13:52.688Z,4.07
2023-05-14T21:16:20.344Z,3.97
2023-05-14T21:18:47.964Z,4.90
2023-05-14T21:21:15.455Z,4.10
2023-05-14T21:23:44.230Z,4.00
2023-05-14T21:26:11.730Z,4.00
2023-05-14T21:28:39.356Z,3.83
2023-05-14T21:31:06.841Z,3.92
2023-05-14T21:33:34.330Z,4.20
2023-05-14T21:36:01.814Z,4.85
2023-05-14T21:38:29.402Z,4.18
2023-05-14T21:40:58.235Z,4.13
2023-05-14T21:43:25.704Z,4.70
2023-05-14T21:45:53.156Z,4.38
2023-05-14T21:48:21.362Z,4.72
2023-05-14T21:50:48.914Z,5.10
2023-05-14T21:53:16.450Z,5.00
2023-05-14T21:55:43.953Z,5.80
2023-05-14T21:58:12.796Z,6.18
2023-05-14T22:00:40.320Z,5.25
2023-05-14T22:03:07.927Z,5.78
2023-05-14T22:05:35.536Z,5.40
2023-05-14T22:08:03.064Z,5.70
2023-05-14T22:10:31.265Z,6.28
2023-05-14T22:12:58.789Z,6.93
2023-05-14T22:15:27.619Z,6.03
2023-05-14T22:17:55.156Z,6.13
2023-05-14T22:20:22.777Z,6.00
2023-05-14T22:22:50.263Z,5.75
2023-05-14T22:25:17.773Z,6.38
2023-05-14T22:27:45.305Z,7.00
2023-05-14T22:30:13.149Z,6.30
2023-05-14T22:32:41.975Z,6.15
2023-05-14T22:35:10.076Z,7.68
2023-05-14T22:37:37.658Z,7.57
2023-05-14T22:40:06.154Z,7.68
2023-05-14T22:42:33.616Z,6.78
2023-05-14T22:45:01.068Z,6.38
2023-05-14T22:47:28.652Z,6.53
2023-05-14T22:49:57.519Z,6.32
2023-05-14T22:52:25.015Z,6.53
2023-05-14T22:54:53.159Z,6.38
2023-05-14T22:57:20.703Z,7.13
2023-05-14T22:59:48.333Z,7.38
2023-05-14T23:02:15.976Z,7.93
2023-05-14T23:04:43.503Z,7.65
2023-05-14T23:07:12.402Z,7.68
2023-05-14T23:09:39.960Z,8.85
2023-05-14T23:12:08.277Z,8.23
2023-05-14T23:14:35.718Z,8.18
2023-05-14T23:17:03.344Z,7.70
2023-05-14T23:19:30.779Z,7.85
2023-05-14T23:21:59.456Z,7.70
2023-05-14T23:24:28.229Z,8.60
2023-05-14T23:26:55.866Z,8.55
2023-05-14T23:29:23.374Z,7.68
2023-05-14T23:31:51.062Z,8.05
2023-05-14T23:34:18.930Z,7.65
2023-05-14T23:36:46.563Z,6.70
2023-05-14T23:39:14.236Z,7.75
2023-05-14T23:41:43.222Z,7.65
2023-05-14T23:44:10.716Z,8.13
2023-05-14T23:46:38.311Z,7.63
2023-05-14T23:49:06.102Z,8.40
2023-05-14T23:51:33.632Z,8.93
2023-05-14T23:54:01.058Z,8.57
2023-05-14T23:56:29.064Z,9.07
2023-05-14T23:58:57.961Z,8.50
